Ds Blue Wave — A8YK2 — position and weather

sailwx.info

Track history (hours):
 
Tides and Currents Weather Stations Pressure Air Temp Water Temp Dewpoint Dewpoint Depression Visibility Wind Speed Wind Dir Waves Ship Positions

Ds Blue Wave

Last reported at 2014-Sep-01 18:14 UTC. Time now 2014-Sep-01 18:52 UTC.
Position N 34°54' E 139°22'.

Length 129 m; draft 5.8 m.

Type: Cargo ship. MMSI: 636092200.

Date/timePositionNaut miles runAvg speedWind from/ knotsBaromVisibWave heightAir tempDewpointWater temp
2014-Sep-01 18:14N 34°54' E 139°22'913.0
2014-Sep-01 17:33N 34°59' E 139°31'1414.4
2014-Sep-01 16:34N 35°09' E 139°44'1211.9
2014-Sep-01 15:34N 35°21' E 139°42'6 5.8
2014-Sep-01 14:33N 35°26' E 139°41'0 0.0
2014-Sep-01 13:21N 35°26' E 139°41'0 0.0
2014-Sep-01 12:33N 35°26' E 139°41'0 0.0
2014-Sep-01 11:33N 35°26' E 139°41'0 0.0
2014-Sep-01 10:33N 35°26' E 139°41'0 0.0
2014-Sep-01 09:34N 35°26' E 139°41'5 5.3
2014-Sep-01 08:33N 35°27' E 139°47'1010.1
2014-Sep-01 07:33N 35°37' E 139°46'0 0.1
2014-Sep-01 06:26N 35°37' E 139°46'0 0.0
2014-Sep-01 04:32N 35°37' E 139°46'0 0.0
2014-Sep-01 03:26N 35°37' E 139°46'0 0.0
2014-Sep-01 02:32N 35°37' E 139°46'0 0.0
2014-Sep-01 01:26N 35°37' E 139°46'0 0.0
2014-Sep-01 00:32N 35°37' E 139°46'0 0.0
2014-Aug-31 23:11N 35°37' E 139°46'0 0.4
2014-Aug-31 22:33N 35°37' E 139°46'8 7.8
2014-Aug-31 21:33N 35°31' E 139°52'1312.9
2014-Aug-31 20:33N 35°20' E 139°44'1312.9
2014-Aug-31 19:33N 35°07' E 139°46'8 7.7
2014-Aug-31 18:33N 35°01' E 139°39'  
2014-Aug-25 16:31N 34°59' E 139°32'1414.3
2014-Aug-25 15:34N 35°09' E 139°44'1212.3
2014-Aug-25 14:33N 35°21' E 139°42'6 5.7
2014-Aug-25 13:34N 35°26' E 139°41'0 0.0
2014-Aug-25 12:34N 35°26' E 139°41'0 0.0
2014-Aug-25 11:34N 35°26' E 139°41'0 0.0
2014-Aug-25 10:34N 35°26' E 139°41'0 0.0
2014-Aug-25 09:33N 35°26' E 139°41'0 0.0
2014-Aug-25 08:34N 35°26' E 139°41'2 2.5
2014-Aug-25 07:34N 35°26' E 139°44'9 9.4
2014-Aug-25 06:34N 35°35' E 139°48'3 3.4
2014-Aug-25 05:33N 35°37' E 139°46'0 0.0
2014-Aug-25 04:33N 35°37' E 139°46'0 0.0
2014-Aug-25 03:33N 35°37' E 139°46'0 0.0
2014-Aug-25 02:15N 35°37' E 139°46'0 0.0
2014-Aug-25 00:21N 35°37' E 139°46'0 0.0
2014-Aug-24 23:30N 35°37' E 139°46'0 0.5
2014-Aug-24 22:33N 35°37' E 139°46'7 6.8
2014-Aug-24 21:33N 35°32' E 139°52'1111.2
2014-Aug-24 20:34N 35°23' E 139°46'10 9.9
2014-Aug-24 19:33N 35°13' E 139°47'1010.2
2014-Aug-24 18:33N 35°03' E 139°42'  
Track history (hours):
 
Tides and Currents Weather Stations Pressure Air Temp Water Temp Dewpoint Dewpoint Depression Visibility Wind Speed Wind Dir Waves Ship Positions

Ds Blue Wave

Last reported at 2014-Sep-01 18:14 UTC. Time now 2014-Sep-01 18:52 UTC.
Position N 34°54' E 139°22'.

Length 129 m; draft 5.8 m.

Type: Cargo ship. MMSI: 636092200.

Date/timePositionNaut miles runAvg speedWind from/ knotsBaromVisibWave heightAir tempDewpointWater temp
2014-Sep-01 18:14N 34°54' E 139°22'913.0
2014-Sep-01 17:33N 34°59' E 139°31'1414.4
2014-Sep-01 16:34N 35°09' E 139°44'1211.9
2014-Sep-01 15:34N 35°21' E 139°42'6 5.8
2014-Sep-01 14:33N 35°26' E 139°41'0 0.0
2014-Sep-01 13:21N 35°26' E 139°41'0 0.0
2014-Sep-01 12:33N 35°26' E 139°41'0 0.0
2014-Sep-01 11:33N 35°26' E 139°41'0 0.0
2014-Sep-01 10:33N 35°26' E 139°41'0 0.0
2014-Sep-01 09:34N 35°26' E 139°41'5 5.3
2014-Sep-01 08:33N 35°27' E 139°47'1010.1
2014-Sep-01 07:33N 35°37' E 139°46'0 0.1
2014-Sep-01 06:26N 35°37' E 139°46'0 0.0
2014-Sep-01 04:32N 35°37' E 139°46'0 0.0
2014-Sep-01 03:26N 35°37' E 139°46'0 0.0
2014-Sep-01 02:32N 35°37' E 139°46'0 0.0
2014-Sep-01 01:26N 35°37' E 139°46'0 0.0
2014-Sep-01 00:32N 35°37' E 139°46'0 0.0
2014-Aug-31 23:11N 35°37' E 139°46'0 0.4
2014-Aug-31 22:33N 35°37' E 139°46'8 7.8
2014-Aug-31 21:33N 35°31' E 139°52'1312.9
2014-Aug-31 20:33N 35°20' E 139°44'1312.9
2014-Aug-31 19:33N 35°07' E 139°46'8 7.7
2014-Aug-31 18:33N 35°01' E 139°39'  
2014-Aug-25 16:31N 34°59' E 139°32'1414.3
2014-Aug-25 15:34N 35°09' E 139°44'1212.3
2014-Aug-25 14:33N 35°21' E 139°42'6 5.7
2014-Aug-25 13:34N 35°26' E 139°41'0 0.0
2014-Aug-25 12:34N 35°26' E 139°41'0 0.0
2014-Aug-25 11:34N 35°26' E 139°41'0 0.0
2014-Aug-25 10:34N 35°26' E 139°41'0 0.0
2014-Aug-25 09:33N 35°26' E 139°41'0 0.0
2014-Aug-25 08:34N 35°26' E 139°41'2 2.5
2014-Aug-25 07:34N 35°26' E 139°44'9 9.4
2014-Aug-25 06:34N 35°35' E 139°48'3 3.4
2014-Aug-25 05:33N 35°37' E 139°46'0 0.0
2014-Aug-25 04:33N 35°37' E 139°46'0 0.0
2014-Aug-25 03:33N 35°37' E 139°46'0 0.0
2014-Aug-25 02:15N 35°37' E 139°46'0 0.0
2014-Aug-25 00:21N 35°37' E 139°46'0 0.0
2014-Aug-24 23:30N 35°37' E 139°46'0 0.5
2014-Aug-24 22:33N 35°37' E 139°46'7 6.8
2014-Aug-24 21:33N 35°32' E 139°52'1111.2
2014-Aug-24 20:34N 35°23' E 139°46'10 9.9
2014-Aug-24 19:33N 35°13' E 139°47'1010.2
2014-Aug-24 18:33N 35°03' E 139°42'  

Dump ship's entire track history